CheckWX is a tool to help pilots better visualize weather data.  It is not intended as a substitute for an official pre-flight weather briefing.

03:22:58 UTC

C65 METAR
Plymouth Municipal Airport
Plymouth, Indiana, USA
Current

28 mins ago

KC65 230255Z AUTO 21008G16KT 10SM SCT016 OVC023 22/20 A2987 RMK A01 P0001
Observed
Sep-23 @ 02:55 UTC
Wind
  • 210° at 8 KTS
  • Gusting to 16 KTS
Visibility
10 SM
Flight Rules
MVFR
Cloud Levels
  • Scattered at 1,600' AGL
  • Overcast at 2,300' AGL
Temperature
22°C / 72°F
Dewpoint
20°C / 68°F
Humidity
88%
Altimeter
29.87" Hg
Pressure
1011.52 hPa
Current Rain
0.01"
Previous

48 mins ago

KC65 230235Z AUTO 22009G18KT 10SM SCT024 BKN032 OVC037 22/20 A2987 RMK A01
Observed
Sep-23 @ 02:35 UTC
Wind
  • 220° at 9 KTS
  • Gusting to 18 KTS
Visibility
10 SM
Flight Rules
VFR
Cloud Levels
  • Scattered at 2,400' AGL
  • Broken at 3,200' AGL
  • Overcast at 3,700' AGL
Temperature
22°C / 72°F
Dewpoint
20°C / 68°F
Humidity
88%
Altimeter
29.87" Hg
Pressure
1011.52 hPa
Previous

1 hour ago

KC65 230215Z AUTO 21009KT 170V240 10SM FEW030 SCT035 BKN042 22/20 A2987 RMK A01
Observed
Sep-23 @ 02:15 UTC
Wind
  • 210° at 9 KTS
Visibility
10 SM
Flight Rules
VFR
Cloud Levels
  • Few at 3,000' AGL
  • Scattered at 3,500' AGL
  • Broken at 4,200' AGL
Temperature
22°C / 72°F
Dewpoint
20°C / 68°F
Humidity
88%
Altimeter
29.87" Hg
Pressure
1011.52 hPa